createdAt,value
2023-03-16T00:02:03.439Z,-1.50
2023-03-16T00:04:30.627Z,-1.60
2023-03-16T00:06:57.781Z,-1.60
2023-03-16T00:09:30.868Z,-1.60
2023-03-16T00:11:58.898Z,-1.50
2023-03-16T00:14:26.281Z,-1.60
2023-03-16T00:16:53.353Z,-1.60
2023-03-16T00:19:22.879Z,-1.60
2023-03-16T00:21:52.773Z,-1.60
2023-03-16T00:24:19.960Z,-1.60
2023-03-16T00:26:47.388Z,-1.60
2023-03-16T00:29:14.322Z,-1.60
2023-03-16T00:31:44.798Z,-1.60
2023-03-16T00:34:12.113Z,-1.60
2023-03-16T00:36:39.098Z,-1.70
2023-03-16T00:39:06.829Z,-1.70
2023-03-16T00:41:37.833Z,-1.70
2023-03-16T00:44:05.634Z,-1.70
2023-03-16T00:46:32.756Z,-1.60
2023-03-16T00:48:59.368Z,-1.70
2023-03-16T00:51:26.170Z,-1.70
2023-03-16T00:53:52.836Z,-1.70
2023-03-16T00:56:19.476Z,-1.70
2023-03-16T00:58:46.074Z,-1.70
2023-03-16T01:01:18.825Z,-1.70
2023-03-16T01:03:46.175Z,-1.70
2023-03-16T01:06:16.983Z,-1.80
2023-03-16T01:08:44.472Z,-1.80
2023-03-16T01:11:16.214Z,-1.80
2023-03-16T01:13:42.936Z,-1.80
2023-03-16T01:16:10.204Z,-1.80
2023-03-16T01:18:36.835Z,-1.80
2023-03-16T01:21:06.284Z,-1.80
2023-03-16T01:23:33.406Z,-1.70
2023-03-16T01:26:02.014Z,-1.60
2023-03-16T01:28:31.685Z,-1.60
2023-03-16T01:31:08.309Z,-1.60
2023-03-16T01:33:35.891Z,-1.60
2023-03-16T01:36:10.031Z,-1.60
2023-03-16T01:38:37.141Z,-1.70
2023-03-16T01:41:04.248Z,-1.60
2023-03-16T01:43:33.362Z,-1.60
2023-03-16T01:46:06.217Z,-1.60
2023-03-16T01:48:40.063Z,-1.50
2023-03-16T01:51:10.613Z,-1.60
2023-03-16T01:53:40.402Z,-1.60
2023-03-16T01:56:10.145Z,-1.60
2023-03-16T01:58:38.331Z,-1.60
2023-03-16T02:01:05.429Z,-1.40
2023-03-16T02:03:34.983Z,-1.40
2023-03-16T02:06:08.324Z,-1.30
2023-03-16T02:08:37.477Z,-1.30
2023-03-16T02:11:05.356Z,-1.30
2023-03-16T02:13:36.548Z,-1.20
2023-03-16T02:16:06.028Z,-1.20
2023-03-16T02:18:33.060Z,-1.20
2023-03-16T02:21:16.317Z,-1.10
2023-03-16T02:23:44.283Z,-1.10
2023-03-16T02:26:16.938Z,-1.10
2023-03-16T02:29:40.279Z,-1.10
2023-03-16T02:32:07.383Z,-1.20
2023-03-16T02:34:35.057Z,-1.20
2023-03-16T02:37:02.130Z,-1.20
2023-03-16T02:39:28.805Z,-1.10
2023-03-16T02:41:55.793Z,-1.10
2023-03-16T02:44:33.857Z,-1.20
2023-03-16T02:47:06.003Z,-1.20
2023-03-16T02:49:42.226Z,-1.10
2023-03-16T02:52:09.566Z,-1.10
2023-03-16T02:54:36.152Z,-1.00
2023-03-16T02:57:03.233Z,-1.10
2023-03-16T02:59:30.042Z,-1.10
2023-03-16T03:01:56.963Z,-1.10
2023-03-16T03:04:24.578Z,-1.10
2023-03-16T03:06:52.033Z,-1.20
2023-03-16T03:09:19.443Z,-1.20
2023-03-16T03:11:50.641Z,-1.20
2023-03-16T03:14:17.256Z,-1.20
2023-03-16T03:16:46.817Z,-1.10
2023-03-16T03:19:14.185Z,-1.20
2023-03-16T03:21:41.489Z,-1.20
2023-03-16T03:24:08.788Z,-1.20
2023-03-16T03:26:38.151Z,-1.30
2023-03-16T03:29:04.790Z,-1.30
2023-03-16T03:31:31.478Z,-1.40
2023-03-16T03:33:58.112Z,-1.40
2023-03-16T03:36:24.763Z,-1.40
2023-03-16T03:38:51.698Z,-1.50
2023-03-16T03:41:18.261Z,-1.50
2023-03-16T03:43:44.904Z,-1.50
2023-03-16T03:46:11.624Z,-1.50
2023-03-16T03:48:38.243Z,-1.40
2023-03-16T03:51:05.511Z,-1.40
2023-03-16T03:53:32.277Z,-1.40
2023-03-16T03:55:58.862Z,-1.50
2023-03-16T03:58:25.536Z,-1.50
2023-03-16T04:00:52.437Z,-1.50
2023-03-16T04:03:19.144Z,-1.50
2023-03-16T04:05:45.839Z,-1.50
2023-03-16T04:08:12.476Z,-1.50
2023-03-16T04:10:39.208Z,-1.50
2023-03-16T04:13:05.923Z,-1.60
2023-03-16T04:15:32.983Z,-1.50
2023-03-16T04:17:59.988Z,-1.50
2023-03-16T04:20:26.934Z,-1.50
2023-03-16T04:22:58.309Z,-1.50
2023-03-16T04:25:27.041Z,-1.40
2023-03-16T04:27:53.900Z,-1.40
2023-03-16T04:30:20.684Z,-1.40
2023-03-16T04:32:47.506Z,-1.30
2023-03-16T04:35:15.542Z,-1.30
2023-03-16T04:37:42.136Z,-1.30
2023-03-16T04:40:19.321Z,-1.20
2023-03-16T04:42:47.191Z,-1.10
2023-03-16T04:45:15.486Z,-1.00
2023-03-16T04:47:42.154Z,-0.90
2023-03-16T04:50:10.435Z,-0.90
2023-03-16T04:52:37.068Z,-0.80
2023-03-16T04:55:04.001Z,-0.70
2023-03-16T04:57:30.760Z,-0.70
2023-03-16T04:59:57.380Z,-0.70
2023-03-16T05:02:24.356Z,-0.50
2023-03-16T05:04:51.067Z,-0.40
2023-03-16T05:07:17.966Z,-0.30
2023-03-16T05:09:44.644Z,-0.30
2023-03-16T05:12:11.401Z,-0.30
2023-03-16T05:14:38.096Z,-0.20
2023-03-16T05:17:05.022Z,0.00
2023-03-16T05:19:31.909Z,0.00
2023-03-16T05:21:58.642Z,0.10
2023-03-16T05:24:25.418Z,0.20
2023-03-16T05:26:52.205Z,0.20
2023-03-16T05:29:18.926Z,0.20
2023-03-16T05:31:47.527Z,0.30
2023-03-16T05:34:14.721Z,0.30
2023-03-16T05:36:41.588Z,0.30
2023-03-16T05:39:11.046Z,0.50
2023-03-16T05:41:37.691Z,0.50
2023-03-16T05:44:04.374Z,0.50
2023-03-16T05:46:31.580Z,0.50
2023-03-16T05:48:58.267Z,0.50
2023-03-16T05:51:26.377Z,0.60
2023-03-16T05:53:56.614Z,0.60
2023-03-16T05:56:27.730Z,0.70
2023-03-16T05:58:55.474Z,0.80
2023-03-16T06:01:22.975Z,0.80
2023-03-16T06:03:51.930Z,0.90
2023-03-16T06:06:19.644Z,1.00
2023-03-16T06:08:46.233Z,1.00
2023-03-16T06:11:12.816Z,1.10
2023-03-16T06:13:40.028Z,1.10
2023-03-16T06:16:07.017Z,1.20
2023-03-16T06:18:35.191Z,1.20
2023-03-16T06:21:01.783Z,1.30
2023-03-16T06:23:28.399Z,1.30
2023-03-16T06:25:55.179Z,1.30
2023-03-16T06:28:23.159Z,1.30
2023-03-16T06:30:53.916Z,1.30
2023-03-16T06:33:20.935Z,1.40
2023-03-16T06:35:49.780Z,1.40
2023-03-16T06:38:17.414Z,1.50
2023-03-16T06:40:44.221Z,1.50
2023-03-16T06:43:10.808Z,1.60
2023-03-16T06:45:37.701Z,1.60
2023-03-16T06:48:04.596Z,1.70
2023-03-16T06:50:31.256Z,1.70
2023-03-16T06:52:57.888Z,1.80
2023-03-16T06:55:24.478Z,1.80
2023-03-16T06:57:51.763Z,1.90
2023-03-16T07:00:18.901Z,2.00
2023-03-16T07:02:45.489Z,2.10
2023-03-16T07:05:14.888Z,2.20
2023-03-16T07:07:42.813Z,2.20
2023-03-16T07:10:15.385Z,2.40
2023-03-16T07:12:42.432Z,2.50
2023-03-16T07:15:10.090Z,2.70
2023-03-16T07:17:36.775Z,2.70
2023-03-16T07:20:05.423Z,2.70
2023-03-16T07:22:32.686Z,2.80
2023-03-16T07:24:59.817Z,2.80
2023-03-16T07:27:26.405Z,2.80
2023-03-16T07:29:53.452Z,2.80
2023-03-16T07:32:20.102Z,2.90
2023-03-16T07:34:46.708Z,2.80
2023-03-16T07:37:13.999Z,2.90
2023-03-16T07:39:40.569Z,3.10
2023-03-16T07:42:07.552Z,3.30
2023-03-16T07:44:34.362Z,3.50
2023-03-16T07:47:01.533Z,3.60
2023-03-16T07:49:28.184Z,3.70
2023-03-16T07:51:54.977Z,3.60
2023-03-16T07:54:24.239Z,3.90
2023-03-16T07:56:51.158Z,4.30
2023-03-16T07:59:20.387Z,4.60
2023-03-16T08:01:47.628Z,4.70
2023-03-16T08:04:14.409Z,4.90
2023-03-16T08:06:42.306Z,5.30
2023-03-16T08:09:09.090Z,6.00
2023-03-16T08:11:35.721Z,6.20
2023-03-16T08:14:02.312Z,6.30
2023-03-16T08:16:29.062Z,7.00
2023-03-16T08:18:59.636Z,7.60
2023-03-16T08:21:26.215Z,7.50
2023-03-16T08:23:52.910Z,7.30
2023-03-16T08:26:21.089Z,7.00
2023-03-16T08:28:51.906Z,6.90
2023-03-16T08:31:20.277Z,6.80
2023-03-16T08:33:48.092Z,6.80
2023-03-16T08:36:17.296Z,6.60
2023-03-16T08:38:53.537Z,6.10
2023-03-16T08:41:30.590Z,6.20
2023-03-16T08:43:57.775Z,5.90
2023-03-16T08:46:24.570Z,6.00
2023-03-16T08:48:52.381Z,6.10
2023-03-16T08:51:19.408Z,6.30
2023-03-16T08:53:46.927Z,6.40
2023-03-16T08:56:14.749Z,6.60
2023-03-16T08:58:45.988Z,6.60
2023-03-16T09:01:14.708Z,6.90
2023-03-16T09:03:42.573Z,7.00
2023-03-16T09:06:10.558Z,7.10
2023-03-16T09:08:39.081Z,7.10
2023-03-16T09:11:08.549Z,7.20
2023-03-16T09:13:36.052Z,7.30
2023-03-16T09:16:03.025Z,7.30
2023-03-16T09:18:29.794Z,7.60
2023-03-16T09:21:01.323Z,7.60
2023-03-16T09:23:29.236Z,7.60
2023-03-16T09:26:00.035Z,7.80
2023-03-16T09:28:28.152Z,7.90
2023-03-16T09:30:56.525Z,8.10
2023-03-16T09:33:24.759Z,8.20
2023-03-16T09:35:52.235Z,8.50
2023-03-16T09:38:20.123Z,8.50
2023-03-16T09:40:52.372Z,8.70
2023-03-16T09:43:43.213Z,8.50
2023-03-16T09:46:21.669Z,7.90
2023-03-16T09:48:48.516Z,7.60
2023-03-16T09:51:48.742Z,7.50
2023-03-16T09:54:43.025Z,7.70
2023-03-16T09:57:31.402Z,8.30
2023-03-16T10:00:14.117Z,8.90
2023-03-16T10:03:30.667Z,9.40
2023-03-16T10:06:02.035Z,10.20
2023-03-16T10:08:41.128Z,11.10
2023-03-16T10:11:42.622Z,11.50
2023-03-16T10:14:22.814Z,11.80
2023-03-16T10:17:15.827Z,11.20
2023-03-16T10:19:51.628Z,11.50
2023-03-16T10:22:22.441Z,11.40
2023-03-16T10:25:08.695Z,10.70
2023-03-16T10:27:38.327Z,10.50
2023-03-16T10:30:21.720Z,10.40
2023-03-16T10:32:49.410Z,10.70
2023-03-16T10:35:54.054Z,10.40
2023-03-16T10:38:39.494Z,9.50
2023-03-16T10:41:18.947Z,9.30
2023-03-16T10:43:47.883Z,9.40
2023-03-16T10:46:15.309Z,9.00
2023-03-16T10:48:42.515Z,9.00
2023-03-16T10:51:14.918Z,8.80
2023-03-16T10:53:44.636Z,8.80
2023-03-16T10:56:19.963Z,8.70
2023-03-16T10:58:46.591Z,8.80
2023-03-16T11:01:26.809Z,8.90
2023-03-16T11:03:55.622Z,8.80
2023-03-16T11:06:30.624Z,8.90
2023-03-16T11:09:14.066Z,9.00
2023-03-16T11:11:48.500Z,8.90
2023-03-16T11:14:15.626Z,9.00
2023-03-16T11:17:02.163Z,9.00
2023-03-16T11:19:35.987Z,9.30
2023-03-16T11:22:10.164Z,10.20
2023-03-16T11:25:04.134Z,11.40
2023-03-16T11:27:35.382Z,11.80
2023-03-16T11:30:17.798Z,12.00
2023-03-16T11:32:51.038Z,12.70
2023-03-16T11:35:56.354Z,12.70
2023-03-16T11:38:41.928Z,12.60
2023-03-16T11:41:15.429Z,12.00
2023-03-16T11:44:06.885Z,11.70
2023-03-16T11:46:56.239Z,11.60
2023-03-16T11:49:44.509Z,11.70
2023-03-16T11:52:26.506Z,11.70
2023-03-16T11:55:09.079Z,11.30
2023-03-16T11:57:53.665Z,11.60
2023-03-16T12:01:02.573Z,11.90
2023-03-16T12:03:41.253Z,14.50
2023-03-16T12:06:22.459Z,16.70
2023-03-16T12:09:38.189Z,18.10
2023-03-16T12:12:28.320Z,18.30
2023-03-16T12:15:08.094Z,16.20
2023-03-16T12:17:37.600Z,16.30
2023-03-16T12:20:07.217Z,17.30
2023-03-16T12:22:39.417Z,18.00
2023-03-16T12:25:16.880Z,18.30
2023-03-16T12:27:45.408Z,18.90
2023-03-16T12:30:45.555Z,19.00
2023-03-16T12:33:45.583Z,19.20
2023-03-16T12:36:30.467Z,19.10
2023-03-16T12:39:27.230Z,19.00
2023-03-16T12:42:35.762Z,19.00
2023-03-16T12:45:02.358Z,19.70
2023-03-16T12:47:48.364Z,19.50
2023-03-16T12:50:17.570Z,18.40
2023-03-16T12:52:52.686Z,17.60
2023-03-16T12:55:20.755Z,17.00
2023-03-16T12:57:51.377Z,16.30
2023-03-16T13:00:19.666Z,15.70
2023-03-16T13:02:56.018Z,15.50
2023-03-16T13:05:36.281Z,14.70
2023-03-16T13:08:08.946Z,13.70
2023-03-16T13:10:37.470Z,13.10
2023-03-16T13:13:17.120Z,12.60
2023-03-16T13:15:47.377Z,12.00
2023-03-16T13:18:17.421Z,11.70
2023-03-16T13:20:52.390Z,11.60
2023-03-16T13:23:18.971Z,11.70
2023-03-16T13:26:01.312Z,11.60
2023-03-16T13:28:35.102Z,11.60
2023-03-16T13:31:02.709Z,11.60
2023-03-16T13:33:38.129Z,11.50
2023-03-16T13:36:09.051Z,11.50
2023-03-16T13:38:36.234Z,11.50
2023-03-16T13:41:09.185Z,11.40
2023-03-16T13:43:41.657Z,11.50
2023-03-16T13:46:20.553Z,11.40
2023-03-16T13:48:48.698Z,11.60
2023-03-16T13:51:20.652Z,11.50
2023-03-16T13:53:48.633Z,11.50
2023-03-16T13:56:18.710Z,11.60
2023-03-16T13:58:51.697Z,11.70
2023-03-16T14:01:30.953Z,11.80
2023-03-16T14:04:08.737Z,11.90
2023-03-16T14:06:36.665Z,11.60
2023-03-16T14:09:06.520Z,11.60
2023-03-16T14:11:33.200Z,11.50
2023-03-16T14:14:00.991Z,11.70
2023-03-16T14:16:29.702Z,11.70
2023-03-16T14:19:16.945Z,11.70
2023-03-16T14:21:45.944Z,11.60
2023-03-16T14:24:37.356Z,11.70
2023-03-16T14:27:44.924Z,11.70
2023-03-16T14:30:19.374Z,11.50
2023-03-16T14:32:58.620Z,11.40
2023-03-16T14:35:30.238Z,11.40
2023-03-16T14:37:57.464Z,11.40
2023-03-16T14:40:32.063Z,11.30
2023-03-16T14:43:04.610Z,11.40
2023-03-16T14:45:34.533Z,11.20
2023-03-16T14:48:07.306Z,11.20
2023-03-16T14:50:34.731Z,11.20
2023-03-16T14:53:03.963Z,11.20
2023-03-16T14:55:30.920Z,11.00
2023-03-16T14:57:57.877Z,11.00
2023-03-16T15:00:25.334Z,10.80
2023-03-16T15:03:08.179Z,10.90
2023-03-16T15:05:40.576Z,10.90
2023-03-16T15:08:14.695Z,10.90
2023-03-16T15:10:42.021Z,10.80
2023-03-16T15:13:40.329Z,10.80
2023-03-16T15:16:12.341Z,10.70
2023-03-16T15:18:42.027Z,10.70
2023-03-16T15:21:20.668Z,10.70
2023-03-16T15:23:47.543Z,10.70
2023-03-16T15:26:16.496Z,10.70
2023-03-16T15:28:43.185Z,10.60
2023-03-16T15:31:16.554Z,10.60
2023-03-16T15:33:45.185Z,10.50
2023-03-16T15:36:18.206Z,10.40
2023-03-16T15:38:47.212Z,10.30
2023-03-16T15:41:14.694Z,10.40
2023-03-16T15:43:41.380Z,10.40
2023-03-16T15:46:10.337Z,10.50
2023-03-16T15:48:37.064Z,10.50
2023-03-16T15:51:34.179Z,10.60
2023-03-16T15:54:04.290Z,10.50
2023-03-16T15:56:41.214Z,10.50
2023-03-16T15:59:16.999Z,10.50
2023-03-16T16:01:46.108Z,10.50
2023-03-16T16:04:16.211Z,10.40
2023-03-16T16:06:43.698Z,10.40
2023-03-16T16:09:10.888Z,10.30
2023-03-16T16:11:38.547Z,10.20
2023-03-16T16:14:05.281Z,10.20
2023-03-16T16:16:34.249Z,10.10
2023-03-16T16:19:00.936Z,10.00
2023-03-16T16:21:30.795Z,9.90
2023-03-16T16:23:57.443Z,9.80
2023-03-16T16:26:48.250Z,9.80
2023-03-16T16:29:22.493Z,9.70
2023-03-16T16:31:51.403Z,9.60
2023-03-16T16:34:24.683Z,9.60
2023-03-16T16:36:52.779Z,9.50
2023-03-16T16:39:19.697Z,9.50
2023-03-16T16:41:46.480Z,9.50
2023-03-16T16:44:23.469Z,9.40
2023-03-16T16:46:51.516Z,9.40
2023-03-16T16:49:22.397Z,9.40
2023-03-16T16:51:49.472Z,9.30
2023-03-16T16:54:21.857Z,9.30
2023-03-16T16:56:51.935Z,9.30
2023-03-16T16:59:24.905Z,9.20
2023-03-16T17:01:52.540Z,9.20
2023-03-16T17:04:25.411Z,9.10
2023-03-16T17:06:55.451Z,9.10
2023-03-16T17:09:23.203Z,9.00
2023-03-16T17:11:51.067Z,9.00
2023-03-16T17:14:21.165Z,9.00
2023-03-16T17:16:49.757Z,8.90
2023-03-16T17:19:23.283Z,8.90
2023-03-16T17:21:55.308Z,8.80
2023-03-16T17:24:22.671Z,8.70
2023-03-16T17:26:54.699Z,8.70
2023-03-16T17:29:27.116Z,8.70
2023-03-16T17:31:54.134Z,8.60
2023-03-16T17:34:23.847Z,8.60
2023-03-16T17:36:51.582Z,8.60
2023-03-16T17:39:21.103Z,8.50
2023-03-16T17:41:59.751Z,8.50
2023-03-16T17:44:32.576Z,8.50
2023-03-16T17:46:59.387Z,8.40
2023-03-16T17:49:28.428Z,8.40
2023-03-16T17:51:55.652Z,8.30
2023-03-16T17:54:22.753Z,8.30
2023-03-16T17:56:52.308Z,8.30
2023-03-16T17:59:21.569Z,8.30
2023-03-16T18:01:48.595Z,8.30
2023-03-16T18:04:21.046Z,8.30
2023-03-16T18:06:48.277Z,8.20
2023-03-16T18:09:20.012Z,8.20
2023-03-16T18:11:49.821Z,8.10
2023-03-16T18:14:36.170Z,8.00
2023-03-16T18:17:26.595Z,8.00
2023-03-16T18:19:53.319Z,8.00
2023-03-16T18:22:23.809Z,8.10
2023-03-16T18:24:52.010Z,8.00
2023-03-16T18:27:19.343Z,8.00
2023-03-16T18:29:46.984Z,8.00
2023-03-16T18:32:27.201Z,8.00
2023-03-16T18:34:54.358Z,8.00
2023-03-16T18:37:23.942Z,8.00
2023-03-16T18:39:52.295Z,8.00
2023-03-16T18:42:27.695Z,8.00
2023-03-16T18:44:55.572Z,8.00
2023-03-16T18:47:23.990Z,8.00
2023-03-16T18:49:53.561Z,7.90
2023-03-16T18:52:23.637Z,7.90
2023-03-16T18:54:51.366Z,7.90
2023-03-16T18:57:26.498Z,7.80
2023-03-16T18:59:53.224Z,7.80
2023-03-16T19:02:33.671Z,7.80
2023-03-16T19:05:02.066Z,7.70
2023-03-16T19:07:42.083Z,7.70
2023-03-16T19:10:33.111Z,7.60
2023-03-16T19:13:00.031Z,7.60
2023-03-16T19:15:30.680Z,7.50
2023-03-16T19:17:58.275Z,7.50
2023-03-16T19:20:31.266Z,7.50
2023-03-16T19:23:05.828Z,7.60
2023-03-16T19:25:36.616Z,7.50
2023-03-16T19:28:06.395Z,7.60
2023-03-16T19:30:35.115Z,7.60
2023-03-16T19:33:02.176Z,7.50
2023-03-16T19:35:48.460Z,7.40
2023-03-16T19:38:16.367Z,7.40
2023-03-16T19:40:43.030Z,7.30
2023-03-16T19:43:16.328Z,7.20
2023-03-16T19:45:43.322Z,7.20
2023-03-16T19:48:27.902Z,7.20
2023-03-16T19:50:54.500Z,7.20
2023-03-16T19:53:22.519Z,7.20
2023-03-16T19:55:51.909Z,7.20
2023-03-16T19:58:39.245Z,7.10
2023-03-16T20:01:13.171Z,7.10
2023-03-16T20:03:39.931Z,7.10
2023-03-16T20:06:08.549Z,7.00
2023-03-16T20:08:35.454Z,7.00
2023-03-16T20:11:06.427Z,7.00
2023-03-16T20:13:36.542Z,7.00
2023-03-16T20:16:03.615Z,6.90
2023-03-16T20:18:30.459Z,6.90
2023-03-16T20:20:57.472Z,6.80
2023-03-16T20:23:29.164Z,6.80
2023-03-16T20:26:02.181Z,6.80
2023-03-16T20:28:34.666Z,6.70
2023-03-16T20:31:02.993Z,6.70
2023-03-16T20:33:29.690Z,6.70
2023-03-16T20:35:56.973Z,6.50
2023-03-16T20:38:23.873Z,6.40
2023-03-16T20:40:52.744Z,6.50
2023-03-16T20:43:31.562Z,6.50
2023-03-16T20:46:00.640Z,6.50
2023-03-16T20:48:28.187Z,6.50
2023-03-16T20:50:57.103Z,6.40
2023-03-16T20:53:24.179Z,6.40
2023-03-16T20:55:52.466Z,6.40
2023-03-16T20:58:24.339Z,6.40
2023-03-16T21:00:54.445Z,6.30
2023-03-16T21:03:23.477Z,6.30
2023-03-16T21:05:51.981Z,6.30
2023-03-16T21:08:19.778Z,6.20
2023-03-16T21:10:48.197Z,6.20
2023-03-16T21:13:30.516Z,6.20
2023-03-16T21:15:59.626Z,6.20
2023-03-16T21:18:26.537Z,6.10
2023-03-16T21:20:53.614Z,6.20
2023-03-16T21:23:22.187Z,6.20
2023-03-16T21:25:55.702Z,6.10
2023-03-16T21:28:24.316Z,6.10
2023-03-16T21:30:53.739Z,6.10
2023-03-16T21:33:31.243Z,6.20
2023-03-16T21:35:59.830Z,6.20
2023-03-16T21:38:28.497Z,6.20
2023-03-16T21:40:55.933Z,6.20
2023-03-16T21:43:23.160Z,6.20
2023-03-16T21:45:51.653Z,6.20
2023-03-16T21:48:29.627Z,6.30
2023-03-16T21:50:57.030Z,6.30
2023-03-16T21:53:29.235Z,6.30
2023-03-16T21:55:57.093Z,6.30
2023-03-16T21:58:24.643Z,6.30
2023-03-16T22:00:52.639Z,6.30
2023-03-16T22:03:50.405Z,6.20
2023-03-16T22:06:18.025Z,6.20
2023-03-16T22:08:46.630Z,6.20
2023-03-16T22:11:19.415Z,6.10
2023-03-16T22:13:46.425Z,6.00
2023-03-16T22:16:15.993Z,6.00
2023-03-16T22:18:44.624Z,5.90
2023-03-16T22:21:28.986Z,5.90
2023-03-16T22:23:57.522Z,5.90
2023-03-16T22:26:24.683Z,5.90
2023-03-16T22:28:51.816Z,5.90
2023-03-16T22:31:25.744Z,6.00
2023-03-16T22:33:52.391Z,6.10
2023-03-16T22:36:21.685Z,6.10
2023-03-16T22:38:59.784Z,6.10
2023-03-16T22:41:26.528Z,6.10
2023-03-16T22:43:54.085Z,6.10
2023-03-16T22:46:23.713Z,6.00
2023-03-16T22:48:51.466Z,6.00
2023-03-16T22:51:29.438Z,6.00
2023-03-16T22:54:07.521Z,6.00
2023-03-16T22:56:35.097Z,6.00
2023-03-16T22:59:08.092Z,6.10
2023-03-16T23:01:41.320Z,6.20
2023-03-16T23:04:29.817Z,6.20
2023-03-16T23:06:57.262Z,6.20
2023-03-16T23:09:23.985Z,6.30
2023-03-16T23:11:54.083Z,6.30
2023-03-16T23:14:27.573Z,6.30
2023-03-16T23:16:54.432Z,6.30
2023-03-16T23:19:29.666Z,6.30
2023-03-16T23:21:59.755Z,6.30
2023-03-16T23:24:26.751Z,6.30
2023-03-16T23:26:55.103Z,6.30
2023-03-16T23:29:22.520Z,6.30
2023-03-16T23:31:50.056Z,6.30
2023-03-16T23:34:19.465Z,6.30
2023-03-16T23:36:46.478Z,6.20
2023-03-16T23:39:13.488Z,6.20
2023-03-16T23:41:43.977Z,6.10
2023-03-16T23:44:23.247Z,6.20
2023-03-16T23:46:51.006Z,6.20
2023-03-16T23:49:24.243Z,6.20
2023-03-16T23:51:52.403Z,6.20
2023-03-16T23:54:28.348Z,6.20
2023-03-16T23:56:55.485Z,6.20
2023-03-16T23:59:23.351Z,6.20
